sensor_id;sensor_type;location;lat;lon;timestamp;P1;durP1;ratioP1;P2;durP2;ratioP2
6809;SDS011;3443;48.812;9.112;2023-10-13T00:00:37;4.38;;;3.30;;
6809;SDS011;3443;48.812;9.112;2023-10-13T00:03:05;3.78;;;2.65;;
6809;SDS011;3443;48.812;9.112;2023-10-13T00:05:32;5.55;;;3.17;;
6809;SDS011;3443;48.812;9.112;2023-10-13T00:07:59;2.90;;;2.70;;
6809;SDS011;3443;48.812;9.112;2023-10-13T00:10:26;4.80;;;2.75;;
6809;SDS011;3443;48.812;9.112;2023-10-13T00:12:52;3.60;;;2.72;;
6809;SDS011;3443;48.812;9.112;2023-10-13T00:15:18;5.65;;;2.90;;
6809;SDS011;3443;48.812;9.112;2023-10-13T00:17:53;2.85;;;2.65;;
6809;SDS011;3443;48.812;9.112;2023-10-13T00:20:20;2.72;;;2.53;;
6809;SDS011;3443;48.812;9.112;2023-10-13T00:23:03;4.50;;;2.70;;
6809;SDS011;3443;48.812;9.112;2023-10-13T00:25:30;3.90;;;2.50;;
6809;SDS011;3443;48.812;9.112;2023-10-13T00:28:04;2.53;;;2.15;;
6809;SDS011;3443;48.812;9.112;2023-10-13T00:30:33;4.35;;;2.22;;
6809;SDS011;3443;48.812;9.112;2023-10-13T00:32:59;3.70;;;2.40;;
6809;SDS011;3443;48.812;9.112;2023-10-13T00:35:26;5.30;;;2.55;;
6809;SDS011;3443;48.812;9.112;2023-10-13T00:38:02;2.95;;;2.40;;
6809;SDS011;3443;48.812;9.112;2023-10-13T00:40:29;2.55;;;2.20;;
6809;SDS011;3443;48.812;9.112;2023-10-13T00:42:56;2.65;;;2.20;;
6809;SDS011;3443;48.812;9.112;2023-10-13T00:45:42;2.78;;;2.40;;
6809;SDS011;3443;48.812;9.112;2023-10-13T00:48:09;4.53;;;2.60;;
6809;SDS011;3443;48.812;9.112;2023-10-13T00:50:37;2.90;;;2.60;;
6809;SDS011;3443;48.812;9.112;2023-10-13T00:53:04;3.45;;;2.20;;
6809;SDS011;3443;48.812;9.112;2023-10-13T00:55:31;2.33;;;2.22;;
6809;SDS011;3443;48.812;9.112;2023-10-13T00:57:59;4.55;;;2.47;;
6809;SDS011;3443;48.812;9.112;2023-10-13T01:00:28;4.95;;;2.38;;
6809;SDS011;3443;48.812;9.112;2023-10-13T01:02:55;3.28;;;2.38;;
6809;SDS011;3443;48.812;9.112;2023-10-13T01:05:25;2.30;;;2.10;;
6809;SDS011;3443;48.812;9.112;2023-10-13T01:07:51;3.20;;;2.15;;
6809;SDS011;3443;48.812;9.112;2023-10-13T01:10:20;3.72;;;2.50;;
6809;SDS011;3443;48.812;9.112;2023-10-13T01:12:51;4.68;;;2.50;;
6809;SDS011;3443;48.812;9.112;2023-10-13T01:15:18;5.50;;;2.60;;
6809;SDS011;3443;48.812;9.112;2023-10-13T01:17:47;2.60;;;2.13;;
6809;SDS011;3443;48.812;9.112;2023-10-13T01:20:13;3.50;;;2.20;;
6809;SDS011;3443;48.812;9.112;2023-10-13T01:22:45;2.30;;;1.98;;
6809;SDS011;3443;48.812;9.112;2023-10-13T01:25:21;3.17;;;2.10;;
6809;SDS011;3443;48.812;9.112;2023-10-13T01:27:50;5.63;;;2.20;;
6809;SDS011;3443;48.812;9.112;2023-10-13T01:30:17;2.63;;;2.42;;
6809;SDS011;3443;48.812;9.112;2023-10-13T01:32:47;4.35;;;1.92;;
6809;SDS011;3443;48.812;9.112;2023-10-13T01:35:15;2.38;;;2.17;;
6809;SDS011;3443;48.812;9.112;2023-10-13T01:37:43;3.70;;;2.22;;
6809;SDS011;3443;48.812;9.112;2023-10-13T01:40:10;7.63;;;2.00;;
6809;SDS011;3443;48.812;9.112;2023-10-13T01:42:37;6.30;;;2.78;;
6809;SDS011;3443;48.812;9.112;2023-10-13T01:45:03;3.38;;;2.00;;
6809;SDS011;3443;48.812;9.112;2023-10-13T01:47:32;4.90;;;2.63;;
6809;SDS011;3443;48.812;9.112;2023-10-13T01:49:58;3.50;;;2.20;;
6809;SDS011;3443;48.812;9.112;2023-10-13T01:52:37;3.00;;;2.03;;
6809;SDS011;3443;48.812;9.112;2023-10-13T01:55:03;2.20;;;2.10;;
6809;SDS011;3443;48.812;9.112;2023-10-13T01:57:32;2.28;;;1.90;;
6809;SDS011;3443;48.812;9.112;2023-10-13T01:59:58;1.92;;;1.83;;
6809;SDS011;3443;48.812;9.112;2023-10-13T02:02:34;3.35;;;2.70;;
6809;SDS011;3443;48.812;9.112;2023-10-13T02:05:02;7.07;;;2.20;;
6809;SDS011;3443;48.812;9.112;2023-10-13T02:07:28;4.20;;;2.13;;
6809;SDS011;3443;48.812;9.112;2023-10-13T02:09:58;2.72;;;2.20;;
6809;SDS011;3443;48.812;9.112;2023-10-13T02:12:24;3.45;;;2.10;;
6809;SDS011;3443;48.812;9.112;2023-10-13T02:15:00;3.75;;;2.40;;
6809;SDS011;3443;48.812;9.112;2023-10-13T02:17:30;3.65;;;2.65;;
6809;SDS011;3443;48.812;9.112;2023-10-13T02:20:14;4.35;;;2.33;;
6809;SDS011;3443;48.812;9.112;2023-10-13T02:22:41;3.40;;;2.10;;
6809;SDS011;3443;48.812;9.112;2023-10-13T02:25:16;3.20;;;2.25;;
6809;SDS011;3443;48.812;9.112;2023-10-13T02:28:00;6.07;;;2.42;;
6809;SDS011;3443;48.812;9.112;2023-10-13T02:30:26;4.38;;;2.10;;
6809;SDS011;3443;48.812;9.112;2023-10-13T02:32:52;3.95;;;2.10;;
6809;SDS011;3443;48.812;9.112;2023-10-13T02:35:20;2.33;;;2.10;;
6809;SDS011;3443;48.812;9.112;2023-10-13T02:37:54;6.82;;;2.45;;
6809;SDS011;3443;48.812;9.112;2023-10-13T02:40:23;3.70;;;2.40;;
6809;SDS011;3443;48.812;9.112;2023-10-13T02:42:49;2.72;;;2.33;;
6809;SDS011;3443;48.812;9.112;2023-10-13T02:45:15;3.25;;;2.10;;
6809;SDS011;3443;48.812;9.112;2023-10-13T02:47:45;2.47;;;1.92;;
6809;SDS011;3443;48.812;9.112;2023-10-13T02:50:31;4.53;;;2.33;;
6809;SDS011;3443;48.812;9.112;2023-10-13T02:52:58;4.57;;;2.63;;
6809;SDS011;3443;48.812;9.112;2023-10-13T02:55:24;4.05;;;2.20;;
6809;SDS011;3443;48.812;9.112;2023-10-13T02:57:52;3.40;;;2.42;;
6809;SDS011;3443;48.812;9.112;2023-10-13T03:00:21;5.07;;;2.45;;
6809;SDS011;3443;48.812;9.112;2023-10-13T03:02:48;5.38;;;2.72;;
6809;SDS011;3443;48.812;9.112;2023-10-13T03:05:23;4.28;;;2.67;;
6809;SDS011;3443;48.812;9.112;2023-10-13T03:07:49;7.82;;;2.63;;
6809;SDS011;3443;48.812;9.112;2023-10-13T03:10:16;7.55;;;2.15;;
6809;SDS011;3443;48.812;9.112;2023-10-13T03:12:44;3.97;;;2.72;;
6809;SDS011;3443;48.812;9.112;2023-10-13T03:15:14;7.40;;;2.80;;
6809;SDS011;3443;48.812;9.112;2023-10-13T03:17:44;4.10;;;2.33;;
6809;SDS011;3443;48.812;9.112;2023-10-13T03:20:11;3.47;;;2.20;;
6809;SDS011;3443;48.812;9.112;2023-10-13T03:22:48;5.57;;;2.42;;
6809;SDS011;3443;48.812;9.112;2023-10-13T03:25:17;3.90;;;2.35;;
6809;SDS011;3443;48.812;9.112;2023-10-13T03:27:49;5.97;;;2.17;;
6809;SDS011;3443;48.812;9.112;2023-10-13T03:30:15;2.45;;;2.25;;
6809;SDS011;3443;48.812;9.112;2023-10-13T03:32:42;5.72;;;2.75;;
6809;SDS011;3443;48.812;9.112;2023-10-13T03:35:11;2.78;;;2.38;;
6809;SDS011;3443;48.812;9.112;2023-10-13T03:37:38;5.57;;;2.63;;
6809;SDS011;3443;48.812;9.112;2023-10-13T03:40:06;5.72;;;2.25;;
6809;SDS011;3443;48.812;9.112;2023-10-13T03:43:03;3.40;;;2.28;;
6809;SDS011;3443;48.812;9.112;2023-10-13T03:45:45;4.35;;;2.15;;
6809;SDS011;3443;48.812;9.112;2023-10-13T03:48:17;5.50;;;2.25;;
6809;SDS011;3443;48.812;9.112;2023-10-13T03:50:50;4.95;;;2.20;;
6809;SDS011;3443;48.812;9.112;2023-10-13T03:53:35;5.28;;;2.53;;
6809;SDS011;3443;48.812;9.112;2023-10-13T03:56:04;2.40;;;2.20;;
6809;SDS011;3443;48.812;9.112;2023-10-13T03:58:35;6.18;;;2.60;;
6809;SDS011;3443;48.812;9.112;2023-10-13T04:01:03;4.10;;;2.55;;
6809;SDS011;3443;48.812;9.112;2023-10-13T04:03:35;5.43;;;2.45;;
6809;SDS011;3443;48.812;9.112;2023-10-13T04:06:04;6.28;;;2.80;;
6809;SDS011;3443;48.812;9.112;2023-10-13T04:08:41;3.13;;;2.33;;
6809;SDS011;3443;48.812;9.112;2023-10-13T04:11:13;5.18;;;2.50;;
6809;SDS011;3443;48.812;9.112;2023-10-13T04:13:57;6.40;;;3.00;;
6809;SDS011;3443;48.812;9.112;2023-10-13T04:16:43;8.88;;;2.40;;
6809;SDS011;3443;48.812;9.112;2023-10-13T04:19:19;3.70;;;2.35;;
6809;SDS011;3443;48.812;9.112;2023-10-13T04:21:49;2.58;;;2.30;;
6809;SDS011;3443;48.812;9.112;2023-10-13T04:24:23;5.82;;;2.50;;
6809;SDS011;3443;48.812;9.112;2023-10-13T04:27:09;6.38;;;2.47;;
6809;SDS011;3443;48.812;9.112;2023-10-13T04:29:54;5.03;;;3.00;;
6809;SDS011;3443;48.812;9.112;2023-10-13T04:32:35;4.43;;;2.38;;
6809;SDS011;3443;48.812;9.112;2023-10-13T04:35:11;3.72;;;2.72;;
6809;SDS011;3443;48.812;9.112;2023-10-13T04:37:37;5.35;;;2.60;;
6809;SDS011;3443;48.812;9.112;2023-10-13T04:40:21;4.28;;;2.70;;
6809;SDS011;3443;48.812;9.112;2023-10-13T04:42:49;7.65;;;2.95;;
6809;SDS011;3443;48.812;9.112;2023-10-13T04:45:19;4.60;;;2.50;;
6809;SDS011;3443;48.812;9.112;2023-10-13T04:47:54;9.27;;;2.95;;
6809;SDS011;3443;48.812;9.112;2023-10-13T04:50:39;3.30;;;2.70;;
6809;SDS011;3443;48.812;9.112;2023-10-13T04:53:11;5.68;;;3.05;;
6809;SDS011;3443;48.812;9.112;2023-10-13T04:55:53;6.90;;;2.72;;
6809;SDS011;3443;48.812;9.112;2023-10-13T04:58:29;7.13;;;2.67;;
6809;SDS011;3443;48.812;9.112;2023-10-13T05:01:05;4.93;;;2.47;;
6809;SDS011;3443;48.812;9.112;2023-10-13T05:03:49;3.05;;;2.00;;
6809;SDS011;3443;48.812;9.112;2023-10-13T05:06:46;3.08;;;2.22;;
6809;SDS011;3443;48.812;9.112;2023-10-13T05:09:31;7.20;;;2.75;;
6809;SDS011;3443;48.812;9.112;2023-10-13T05:12:15;3.45;;;2.80;;
6809;SDS011;3443;48.812;9.112;2023-10-13T05:15:00;4.07;;;2.22;;
6809;SDS011;3443;48.812;9.112;2023-10-13T05:17:45;3.92;;;2.65;;
6809;SDS011;3443;48.812;9.112;2023-10-13T05:20:29;6.63;;;2.58;;
6809;SDS011;3443;48.812;9.112;2023-10-13T05:23:14;6.22;;;2.88;;
6809;SDS011;3443;48.812;9.112;2023-10-13T05:26:01;3.80;;;2.35;;
6809;SDS011;3443;48.812;9.112;2023-10-13T05:28:46;5.68;;;2.65;;
6809;SDS011;3443;48.812;9.112;2023-10-13T05:31:30;4.93;;;2.95;;
6809;SDS011;3443;48.812;9.112;2023-10-13T05:34:15;4.45;;;2.80;;
6809;SDS011;3443;48.812;9.112;2023-10-13T05:36:59;3.72;;;2.80;;
6809;SDS011;3443;48.812;9.112;2023-10-13T05:39:44;5.70;;;2.70;;
6809;SDS011;3443;48.812;9.112;2023-10-13T05:42:28;4.68;;;2.92;;
6809;SDS011;3443;48.812;9.112;2023-10-13T05:45:13;5.25;;;2.50;;
6809;SDS011;3443;48.812;9.112;2023-10-13T05:47:42;6.13;;;3.15;;
6809;SDS011;3443;48.812;9.112;2023-10-13T05:50:11;4.22;;;2.55;;
6809;SDS011;3443;48.812;9.112;2023-10-13T05:52:39;3.28;;;2.58;;
6809;SDS011;3443;48.812;9.112;2023-10-13T05:55:21;5.50;;;2.53;;
6809;SDS011;3443;48.812;9.112;2023-10-13T05:58:06;4.97;;;2.63;;
6809;SDS011;3443;48.812;9.112;2023-10-13T06:00:51;5.25;;;2.72;;
6809;SDS011;3443;48.812;9.112;2023-10-13T06:03:35;7.80;;;4.05;;
6809;SDS011;3443;48.812;9.112;2023-10-13T06:06:19;6.32;;;2.72;;
6809;SDS011;3443;48.812;9.112;2023-10-13T06:09:04;5.00;;;2.47;;
6809;SDS011;3443;48.812;9.112;2023-10-13T06:11:49;2.75;;;2.50;;
6809;SDS011;3443;48.812;9.112;2023-10-13T06:14:33;3.78;;;2.75;;
6809;SDS011;3443;48.812;9.112;2023-10-13T06:17:18;4.18;;;3.10;;
6809;SDS011;3443;48.812;9.112;2023-10-13T06:20:02;3.95;;;2.35;;
6809;SDS011;3443;48.812;9.112;2023-10-13T06:22:47;4.45;;;2.63;;
6809;SDS011;3443;48.812;9.112;2023-10-13T06:25:32;3.15;;;2.58;;
6809;SDS011;3443;48.812;9.112;2023-10-13T06:28:16;7.47;;;2.80;;
6809;SDS011;3443;48.812;9.112;2023-10-13T06:31:01;3.78;;;2.53;;
6809;SDS011;3443;48.812;9.112;2023-10-13T06:33:27;5.63;;;2.20;;
6809;SDS011;3443;48.812;9.112;2023-10-13T06:35:58;7.10;;;4.30;;
6809;SDS011;3443;48.812;9.112;2023-10-13T06:38:24;9.88;;;3.42;;
6809;SDS011;3443;48.812;9.112;2023-10-13T06:40:56;4.70;;;2.80;;
6809;SDS011;3443;48.812;9.112;2023-10-13T06:43:22;3.67;;;2.83;;
6809;SDS011;3443;48.812;9.112;2023-10-13T06:45:48;7.53;;;5.03;;
6809;SDS011;3443;48.812;9.112;2023-10-13T06:48:27;16.58;;;6.80;;
6809;SDS011;3443;48.812;9.112;2023-10-13T06:50:58;12.00;;;7.45;;
6809;SDS011;3443;48.812;9.112;2023-10-13T06:53:29;7.28;;;3.97;;
6809;SDS011;3443;48.812;9.112;2023-10-13T06:55:59;5.85;;;3.05;;
6809;SDS011;3443;48.812;9.112;2023-10-13T06:58:25;3.25;;;2.95;;
6809;SDS011;3443;48.812;9.112;2023-10-13T07:00:51;6.50;;;2.90;;
6809;SDS011;3443;48.812;9.112;2023-10-13T07:03:22;4.65;;;2.72;;
6809;SDS011;3443;48.812;9.112;2023-10-13T07:05:50;2.30;;;2.10;;
6809;SDS011;3443;48.812;9.112;2023-10-13T07:08:17;5.45;;;2.70;;
6809;SDS011;3443;48.812;9.112;2023-10-13T07:10:55;8.50;;;3.13;;
6809;SDS011;3443;48.812;9.112;2023-10-13T07:13:32;5.70;;;2.67;;
6809;SDS011;3443;48.812;9.112;2023-10-13T07:16:03;12.57;;;4.63;;
6809;SDS011;3443;48.812;9.112;2023-10-13T07:18:38;11.23;;;3.83;;
6809;SDS011;3443;48.812;9.112;2023-10-13T07:21:15;10.13;;;4.07;;
6809;SDS011;3443;48.812;9.112;2023-10-13T07:23:41;5.07;;;3.70;;
6809;SDS011;3443;48.812;9.112;2023-10-13T07:26:14;9.68;;;4.70;;
6809;SDS011;3443;48.812;9.112;2023-10-13T07:28:41;9.00;;;3.42;;
6809;SDS011;3443;48.812;9.112;2023-10-13T07:31:13;6.85;;;3.75;;
6809;SDS011;3443;48.812;9.112;2023-10-13T07:33:44;9.05;;;3.60;;
6809;SDS011;3443;48.812;9.112;2023-10-13T07:36:10;8.18;;;3.88;;
6809;SDS011;3443;48.812;9.112;2023-10-13T07:38:41;7.55;;;2.90;;
6809;SDS011;3443;48.812;9.112;2023-10-13T07:41:07;9.13;;;3.50;;
6809;SDS011;3443;48.812;9.112;2023-10-13T07:43:33;9.52;;;3.30;;
6809;SDS011;3443;48.812;9.112;2023-10-13T07:46:02;5.85;;;2.83;;
6809;SDS011;3443;48.812;9.112;2023-10-13T07:48:34;8.32;;;2.72;;
6809;SDS011;3443;48.812;9.112;2023-10-13T07:51:01;3.85;;;2.65;;
6809;SDS011;3443;48.812;9.112;2023-10-13T07:53:35;6.85;;;2.38;;
6809;SDS011;3443;48.812;9.112;2023-10-13T07:56:04;4.80;;;2.13;;
6809;SDS011;3443;48.812;9.112;2023-10-13T07:58:33;7.10;;;2.53;;
6809;SDS011;3443;48.812;9.112;2023-10-13T08:00:59;7.40;;;2.67;;
6809;SDS011;3443;48.812;9.112;2023-10-13T08:03:32;3.38;;;2.30;;
6809;SDS011;3443;48.812;9.112;2023-10-13T08:06:11;7.15;;;2.42;;
6809;SDS011;3443;48.812;9.112;2023-10-13T08:08:38;5.28;;;2.60;;
6809;SDS011;3443;48.812;9.112;2023-10-13T08:11:08;5.07;;;2.47;;
6809;SDS011;3443;48.812;9.112;2023-10-13T08:13:52;2.95;;;1.90;;
6809;SDS011;3443;48.812;9.112;2023-10-13T08:16:25;6.63;;;2.30;;
6809;SDS011;3443;48.812;9.112;2023-10-13T08:18:55;5.05;;;2.30;;
6809;SDS011;3443;48.812;9.112;2023-10-13T08:21:21;6.88;;;2.00;;
6809;SDS011;3443;48.812;9.112;2023-10-13T08:23:56;4.63;;;2.17;;
6809;SDS011;3443;48.812;9.112;2023-10-13T08:26:24;4.72;;;2.08;;
6809;SDS011;3443;48.812;9.112;2023-10-13T08:28:58;3.45;;;2.08;;
6809;SDS011;3443;48.812;9.112;2023-10-13T08:31:47;5.82;;;2.25;;
6809;SDS011;3443;48.812;9.112;2023-10-13T08:34:39;4.18;;;2.05;;
6809;SDS011;3443;48.812;9.112;2023-10-13T08:37:25;5.68;;;2.33;;
6809;SDS011;3443;48.812;9.112;2023-10-13T08:39:52;5.32;;;1.90;;
6809;SDS011;3443;48.812;9.112;2023-10-13T08:42:29;5.13;;;2.30;;
6809;SDS011;3443;48.812;9.112;2023-10-13T08:45:05;6.70;;;2.20;;
6809;SDS011;3443;48.812;9.112;2023-10-13T08:47:51;3.47;;;2.10;;
6809;SDS011;3443;48.812;9.112;2023-10-13T08:58:31;4.18;;;2.53;;
6809;SDS011;3443;48.812;9.112;2023-10-13T09:01:17;5.07;;;2.50;;
6809;SDS011;3443;48.812;9.112;2023-10-13T09:06:59;9.57;;;2.20;;
6809;SDS011;3443;48.812;9.112;2023-10-13T09:12:17;7.60;;;2.00;;
6809;SDS011;3443;48.812;9.112;2023-10-13T09:15:16;7.93;;;2.40;;
6809;SDS011;3443;48.812;9.112;2023-10-13T09:17:44;3.72;;;2.10;;
6809;SDS011;3443;48.812;9.112;2023-10-13T09:20:17;4.45;;;2.45;;
6809;SDS011;3443;48.812;9.112;2023-10-13T09:22:53;8.13;;;2.08;;
6809;SDS011;3443;48.812;9.112;2023-10-13T09:25:29;7.18;;;2.15;;
6809;SDS011;3443;48.812;9.112;2023-10-13T09:28:00;5.00;;;2.10;;
6809;SDS011;3443;48.812;9.112;2023-10-13T09:30:26;3.60;;;1.92;;
6809;SDS011;3443;48.812;9.112;2023-10-13T09:32:59;5.40;;;1.88;;
6809;SDS011;3443;48.812;9.112;2023-10-13T09:35:33;6.55;;;1.95;;
6809;SDS011;3443;48.812;9.112;2023-10-13T09:38:02;6.38;;;2.25;;
6809;SDS011;3443;48.812;9.112;2023-10-13T09:40:30;7.88;;;2.63;;
6809;SDS011;3443;48.812;9.112;2023-10-13T09:43:03;4.15;;;2.08;;
6809;SDS011;3443;48.812;9.112;2023-10-13T09:45:40;2.30;;;1.90;;
6809;SDS011;3443;48.812;9.112;2023-10-13T09:48:25;5.65;;;2.47;;
6809;SDS011;3443;48.812;9.112;2023-10-13T09:50:57;8.23;;;2.35;;
6809;SDS011;3443;48.812;9.112;2023-10-13T09:53:24;6.15;;;2.30;;
6809;SDS011;3443;48.812;9.112;2023-10-13T09:55:53;3.65;;;2.60;;
6809;SDS011;3443;48.812;9.112;2023-10-13T09:58:20;4.75;;;2.08;;
6809;SDS011;3443;48.812;9.112;2023-10-13T10:00:54;5.20;;;2.42;;
6809;SDS011;3443;48.812;9.112;2023-10-13T10:03:47;6.63;;;2.45;;
6809;SDS011;3443;48.812;9.112;2023-10-13T10:06:32;5.55;;;2.05;;
6809;SDS011;3443;48.812;9.112;2023-10-13T10:09:08;3.88;;;2.38;;
6809;SDS011;3443;48.812;9.112;2023-10-13T10:19:18;7.78;;;2.25;;
6809;SDS011;3443;48.812;9.112;2023-10-13T10:21:44;9.15;;;2.30;;
6809;SDS011;3443;48.812;9.112;2023-10-13T10:24:14;7.80;;;2.20;;
6809;SDS011;3443;48.812;9.112;2023-10-13T10:26:54;4.07;;;2.10;;
6809;SDS011;3443;48.812;9.112;2023-10-13T10:29:20;4.60;;;2.22;;
6809;SDS011;3443;48.812;9.112;2023-10-13T10:31:46;5.65;;;2.50;;
6809;SDS011;3443;48.812;9.112;2023-10-13T10:34:13;3.25;;;2.55;;
6809;SDS011;3443;48.812;9.112;2023-10-13T10:36:39;4.45;;;2.25;;
6809;SDS011;3443;48.812;9.112;2023-10-13T10:39:08;6.00;;;2.20;;
6809;SDS011;3443;48.812;9.112;2023-10-13T10:41:36;7.03;;;2.28;;
6809;SDS011;3443;48.812;9.112;2023-10-13T10:44:25;9.88;;;2.55;;
6809;SDS011;3443;48.812;9.112;2023-10-13T10:47:08;7.00;;;2.53;;
6809;SDS011;3443;48.812;9.112;2023-10-13T10:49:36;4.10;;;2.03;;
6809;SDS011;3443;48.812;9.112;2023-10-13T10:52:02;6.95;;;2.17;;
6809;SDS011;3443;48.812;9.112;2023-10-13T10:54:32;6.57;;;2.53;;
6809;SDS011;3443;48.812;9.112;2023-10-13T10:56:59;4.05;;;2.03;;
6809;SDS011;3443;48.812;9.112;2023-10-13T10:59:38;7.88;;;1.90;;
6809;SDS011;3443;48.812;9.112;2023-10-13T11:02:04;5.68;;;2.58;;
6809;SDS011;3443;48.812;9.112;2023-10-13T11:04:32;6.10;;;2.42;;
6809;SDS011;3443;48.812;9.112;2023-10-13T11:07:07;5.60;;;2.05;;
6809;SDS011;3443;48.812;9.112;2023-10-13T11:09:34;5.93;;;2.38;;
6809;SDS011;3443;48.812;9.112;2023-10-13T11:12:11;6.05;;;2.40;;
6809;SDS011;3443;48.812;9.112;2023-10-13T11:14:40;4.70;;;2.30;;
6809;SDS011;3443;48.812;9.112;2023-10-13T11:17:07;5.38;;;2.17;;
6809;SDS011;3443;48.812;9.112;2023-10-13T11:19:45;5.35;;;2.10;;
6809;SDS011;3443;48.812;9.112;2023-10-13T11:22:16;5.97;;;2.22;;
6809;SDS011;3443;48.812;9.112;2023-10-13T11:24:57;5.43;;;2.45;;
6809;SDS011;3443;48.812;9.112;2023-10-13T11:27:32;3.65;;;1.85;;
6809;SDS011;3443;48.812;9.112;2023-10-13T11:30:19;4.63;;;2.20;;
6809;SDS011;3443;48.812;9.112;2023-10-13T11:32:56;4.93;;;2.20;;
6809;SDS011;3443;48.812;9.112;2023-10-13T11:35:23;6.82;;;2.53;;
6809;SDS011;3443;48.812;9.112;2023-10-13T11:37:50;7.85;;;2.45;;
6809;SDS011;3443;48.812;9.112;2023-10-13T11:40:36;4.80;;;1.98;;
6809;SDS011;3443;48.812;9.112;2023-10-13T11:43:11;3.58;;;2.15;;
6809;SDS011;3443;48.812;9.112;2023-10-13T11:45:41;5.07;;;2.30;;
6809;SDS011;3443;48.812;9.112;2023-10-13T11:48:20;6.60;;;2.33;;
6809;SDS011;3443;48.812;9.112;2023-10-13T11:51:00;2.95;;;2.10;;
6809;SDS011;3443;48.812;9.112;2023-10-13T11:53:26;4.95;;;2.40;;
6809;SDS011;3443;48.812;9.112;2023-10-13T11:55:54;3.92;;;2.22;;
6809;SDS011;3443;48.812;9.112;2023-10-13T11:58:21;3.35;;;2.08;;
6809;SDS011;3443;48.812;9.112;2023-10-13T12:00:47;4.18;;;2.15;;
6809;SDS011;3443;48.812;9.112;2023-10-13T12:03:18;2.53;;;1.90;;
6809;SDS011;3443;48.812;9.112;2023-10-13T12:06:02;7.68;;;2.15;;
6809;SDS011;3443;48.812;9.112;2023-10-13T12:08:44;6.75;;;2.58;;
6809;SDS011;3443;48.812;9.112;2023-10-13T12:11:15;3.08;;;2.13;;
6809;SDS011;3443;48.812;9.112;2023-10-13T12:13:56;5.15;;;2.30;;
6809;SDS011;3443;48.812;9.112;2023-10-13T12:16:22;4.45;;;2.38;;
6809;SDS011;3443;48.812;9.112;2023-10-13T12:18:59;8.05;;;2.22;;
6809;SDS011;3443;48.812;9.112;2023-10-13T12:21:26;3.30;;;2.10;;
6809;SDS011;3443;48.812;9.112;2023-10-13T12:23:52;5.82;;;2.42;;
6809;SDS011;3443;48.812;9.112;2023-10-13T12:26:19;2.40;;;2.20;;
6809;SDS011;3443;48.812;9.112;2023-10-13T12:28:45;4.28;;;1.92;;
6809;SDS011;3443;48.812;9.112;2023-10-13T12:31:18;6.22;;;2.13;;
6809;SDS011;3443;48.812;9.112;2023-10-13T12:33:51;6.82;;;2.67;;
6809;SDS011;3443;48.812;9.112;2023-10-13T12:36:17;6.80;;;2.33;;
6809;SDS011;3443;48.812;9.112;2023-10-13T12:38:46;6.82;;;2.65;;
6809;SDS011;3443;48.812;9.112;2023-10-13T12:41:19;4.88;;;2.13;;
6809;SDS011;3443;48.812;9.112;2023-10-13T12:46:34;7.38;;;2.40;;
6809;SDS011;3443;48.812;9.112;2023-10-13T12:49:19;3.40;;;2.08;;
6809;SDS011;3443;48.812;9.112;2023-10-13T12:52:03;3.92;;;2.10;;
6809;SDS011;3443;48.812;9.112;2023-10-13T12:54:30;3.58;;;2.28;;
6809;SDS011;3443;48.812;9.112;2023-10-13T12:57:04;3.00;;;2.08;;
6809;SDS011;3443;48.812;9.112;2023-10-13T12:59:34;3.92;;;2.10;;
6809;SDS011;3443;48.812;9.112;2023-10-13T13:02:00;4.75;;;2.05;;
6809;SDS011;3443;48.812;9.112;2023-10-13T13:04:32;6.85;;;2.20;;
6809;SDS011;3443;48.812;9.112;2023-10-13T13:07:01;6.95;;;2.38;;
6809;SDS011;3443;48.812;9.112;2023-10-13T13:09:31;3.30;;;1.85;;
6809;SDS011;3443;48.812;9.112;2023-10-13T13:12:00;5.13;;;2.20;;
6809;SDS011;3443;48.812;9.112;2023-10-13T13:14:26;3.92;;;1.80;;
6809;SDS011;3443;48.812;9.112;2023-10-13T13:16:56;5.63;;;2.38;;
6809;SDS011;3443;48.812;9.112;2023-10-13T13:19:30;4.95;;;2.20;;
6809;SDS011;3443;48.812;9.112;2023-10-13T13:21:58;4.15;;;2.33;;
6809;SDS011;3443;48.812;9.112;2023-10-13T13:24:24;4.65;;;2.17;;
6809;SDS011;3443;48.812;9.112;2023-10-13T13:26:54;6.03;;;2.20;;
6809;SDS011;3443;48.812;9.112;2023-10-13T13:29:20;4.65;;;2.00;;
6809;SDS011;3443;48.812;9.112;2023-10-13T13:31:47;3.55;;;1.80;;
6809;SDS011;3443;48.812;9.112;2023-10-13T13:34:14;4.57;;;2.03;;
6809;SDS011;3443;48.812;9.112;2023-10-13T13:36:41;4.03;;;2.35;;
6809;SDS011;3443;48.812;9.112;2023-10-13T13:39:10;3.25;;;2.28;;
6809;SDS011;3443;48.812;9.112;2023-10-13T13:41:36;4.88;;;2.30;;
6809;SDS011;3443;48.812;9.112;2023-10-13T13:44:03;3.45;;;2.05;;
6809;SDS011;3443;48.812;9.112;2023-10-13T13:46:38;3.20;;;2.20;;
6809;SDS011;3443;48.812;9.112;2023-10-13T13:49:08;5.68;;;2.25;;
6809;SDS011;3443;48.812;9.112;2023-10-13T13:51:42;3.60;;;2.08;;
6809;SDS011;3443;48.812;9.112;2023-10-13T13:54:09;8.38;;;2.30;;
6809;SDS011;3443;48.812;9.112;2023-10-13T13:56:35;6.00;;;1.98;;
6809;SDS011;3443;48.812;9.112;2023-10-13T13:59:03;3.38;;;2.15;;
6809;SDS011;3443;48.812;9.112;2023-10-13T14:01:34;6.18;;;2.40;;
6809;SDS011;3443;48.812;9.112;2023-10-13T14:04:02;3.67;;;1.95;;
6809;SDS011;3443;48.812;9.112;2023-10-13T14:06:31;2.83;;;2.20;;
6809;SDS011;3443;48.812;9.112;2023-10-13T14:08:59;2.92;;;2.20;;
6809;SDS011;3443;48.812;9.112;2023-10-13T14:11:29;3.92;;;2.13;;
6809;SDS011;3443;48.812;9.112;2023-10-13T14:14:07;3.42;;;1.90;;
6809;SDS011;3443;48.812;9.112;2023-10-13T14:16:40;6.30;;;1.98;;
6809;SDS011;3443;48.812;9.112;2023-10-13T14:19:12;5.63;;;2.40;;
6809;SDS011;3443;48.812;9.112;2023-10-13T14:21:51;2.85;;;2.03;;
6809;SDS011;3443;48.812;9.112;2023-10-13T14:24:18;4.38;;;2.20;;
6809;SDS011;3443;48.812;9.112;2023-10-13T14:26:53;4.28;;;2.10;;
6809;SDS011;3443;48.812;9.112;2023-10-13T14:29:19;4.45;;;1.80;;
6809;SDS011;3443;48.812;9.112;2023-10-13T14:31:45;2.20;;;1.77;;
6809;SDS011;3443;48.812;9.112;2023-10-13T14:34:13;3.83;;;1.95;;
6809;SDS011;3443;48.812;9.112;2023-10-13T14:36:42;6.05;;;2.05;;
6809;SDS011;3443;48.812;9.112;2023-10-13T14:39:13;4.22;;;1.90;;
6809;SDS011;3443;48.812;9.112;2023-10-13T14:41:39;3.55;;;2.13;;
6809;SDS011;3443;48.812;9.112;2023-10-13T14:44:05;6.45;;;1.85;;
6809;SDS011;3443;48.812;9.112;2023-10-13T14:46:32;5.88;;;2.50;;
6809;SDS011;3443;48.812;9.112;2023-10-13T14:49:01;2.40;;;2.00;;
6809;SDS011;3443;48.812;9.112;2023-10-13T14:51:28;3.65;;;2.00;;
6809;SDS011;3443;48.812;9.112;2023-10-13T14:53:54;4.40;;;2.10;;
6809;SDS011;3443;48.812;9.112;2023-10-13T14:56:29;4.80;;;1.77;;
6809;SDS011;3443;48.812;9.112;2023-10-13T14:58:55;2.92;;;2.03;;
6809;SDS011;3443;48.812;9.112;2023-10-13T15:01:22;3.30;;;1.80;;
6809;SDS011;3443;48.812;9.112;2023-10-13T15:03:51;3.05;;;2.00;;
6809;SDS011;3443;48.812;9.112;2023-10-13T15:06:21;3.55;;;2.05;;
6809;SDS011;3443;48.812;9.112;2023-10-13T15:08:50;6.35;;;2.20;;
6809;SDS011;3443;48.812;9.112;2023-10-13T15:11:16;8.50;;;2.35;;
6809;SDS011;3443;48.812;9.112;2023-10-13T15:13:45;2.50;;;1.90;;
6809;SDS011;3443;48.812;9.112;2023-10-13T15:16:19;2.30;;;2.00;;
6809;SDS011;3443;48.812;9.112;2023-10-13T15:18:46;4.57;;;2.10;;
6809;SDS011;3443;48.812;9.112;2023-10-13T15:21:19;2.78;;;2.00;;
6809;SDS011;3443;48.812;9.112;2023-10-13T15:23:51;2.58;;;1.88;;
6809;SDS011;3443;48.812;9.112;2023-10-13T15:26:17;2.33;;;1.95;;
6809;SDS011;3443;48.812;9.112;2023-10-13T15:28:46;3.20;;;1.48;;
6809;SDS011;3443;48.812;9.112;2023-10-13T15:31:18;5.28;;;1.75;;
6809;SDS011;3443;48.812;9.112;2023-10-13T15:34:00;4.97;;;1.70;;
6809;SDS011;3443;48.812;9.112;2023-10-13T15:36:32;2.25;;;1.70;;
6809;SDS011;3443;48.812;9.112;2023-10-13T15:38:58;3.40;;;1.60;;
6809;SDS011;3443;48.812;9.112;2023-10-13T15:41:24;2.00;;;1.83;;
6809;SDS011;3443;48.812;9.112;2023-10-13T15:43:50;2.65;;;1.70;;
6809;SDS011;3443;48.812;9.112;2023-10-13T15:46:17;5.20;;;1.77;;
6809;SDS011;3443;48.812;9.112;2023-10-13T15:48:47;2.67;;;1.85;;
6809;SDS011;3443;48.812;9.112;2023-10-13T15:51:13;5.22;;;1.83;;
6809;SDS011;3443;48.812;9.112;2023-10-13T15:53:41;2.05;;;1.60;;
6809;SDS011;3443;48.812;9.112;2023-10-13T15:56:08;2.97;;;1.70;;
6809;SDS011;3443;48.812;9.112;2023-10-13T15:58:38;2.90;;;1.67;;
6809;SDS011;3443;48.812;9.112;2023-10-13T16:01:04;1.90;;;1.77;;
6809;SDS011;3443;48.812;9.112;2023-10-13T16:03:32;7.47;;;2.30;;
6809;SDS011;3443;48.812;9.112;2023-10-13T16:06:01;3.85;;;1.83;;
6809;SDS011;3443;48.812;9.112;2023-10-13T16:08:29;4.63;;;2.10;;
6809;SDS011;3443;48.812;9.112;2023-10-13T16:11:03;4.05;;;1.60;;